sensor_id;sensor_type;location;lat;lon;timestamp;P1;durP1;ratioP1;P2;durP2;ratioP2
77280;SDS011;66339;47.262;17.144;2023-02-22T00:00:33;12.97;;;7.30;;
77280;SDS011;66339;47.262;17.144;2023-02-22T00:03:03;17.67;;;8.18;;
77280;SDS011;66339;47.262;17.144;2023-02-22T00:05:50;14.13;;;7.60;;
77280;SDS011;66339;47.262;17.144;2023-02-22T00:08:23;12.73;;;7.65;;
77280;SDS011;66339;47.262;17.144;2023-02-22T00:10:58;11.88;;;7.00;;
77280;SDS011;66339;47.262;17.144;2023-02-22T00:13:37;10.07;;;6.80;;
77280;SDS011;66339;47.262;17.144;2023-02-22T00:16:07;15.70;;;7.32;;
77280;SDS011;66339;47.262;17.144;2023-02-22T00:18:40;12.63;;;7.50;;
77280;SDS011;66339;47.262;17.144;2023-02-22T00:21:07;14.10;;;6.85;;
77280;SDS011;66339;47.262;17.144;2023-02-22T00:23:42;12.13;;;7.07;;
77280;SDS011;66339;47.262;17.144;2023-02-22T00:26:19;16.37;;;7.22;;
77280;SDS011;66339;47.262;17.144;2023-02-22T00:28:51;14.20;;;7.30;;
77280;SDS011;66339;47.262;17.144;2023-02-22T00:31:22;10.52;;;6.57;;
77280;SDS011;66339;47.262;17.144;2023-02-22T00:33:51;11.48;;;6.32;;
77280;SDS011;66339;47.262;17.144;2023-02-22T00:36:29;11.20;;;6.65;;
77280;SDS011;66339;47.262;17.144;2023-02-22T00:38:56;11.25;;;6.87;;
77280;SDS011;66339;47.262;17.144;2023-02-22T00:41:25;11.00;;;6.72;;
77280;SDS011;66339;47.262;17.144;2023-02-22T00:43:58;12.82;;;7.12;;
77280;SDS011;66339;47.262;17.144;2023-02-22T00:46:32;11.70;;;6.40;;
77280;SDS011;66339;47.262;17.144;2023-02-22T00:49:02;11.52;;;6.43;;
77280;SDS011;66339;47.262;17.144;2023-02-22T00:51:36;11.52;;;7.10;;
77280;SDS011;66339;47.262;17.144;2023-02-22T00:54:07;12.55;;;7.15;;
77280;SDS011;66339;47.262;17.144;2023-02-22T00:56:39;15.25;;;6.53;;
77280;SDS011;66339;47.262;17.144;2023-02-22T00:59:09;10.48;;;6.37;;
77280;SDS011;66339;47.262;17.144;2023-02-22T01:01:37;12.15;;;6.70;;
77280;SDS011;66339;47.262;17.144;2023-02-22T01:04:15;11.05;;;6.18;;
77280;SDS011;66339;47.262;17.144;2023-02-22T01:06:46;8.73;;;6.00;;
77280;SDS011;66339;47.262;17.144;2023-02-22T01:09:17;8.68;;;5.95;;
77280;SDS011;66339;47.262;17.144;2023-02-22T01:11:51;11.73;;;6.72;;
77280;SDS011;66339;47.262;17.144;2023-02-22T01:14:23;11.48;;;6.05;;
77280;SDS011;66339;47.262;17.144;2023-02-22T01:16:55;10.63;;;6.20;;
77280;SDS011;66339;47.262;17.144;2023-02-22T01:19:25;10.60;;;6.07;;
77280;SDS011;66339;47.262;17.144;2023-02-22T01:21:55;10.80;;;6.00;;
77280;SDS011;66339;47.262;17.144;2023-02-22T01:24:26;10.93;;;6.40;;
77280;SDS011;66339;47.262;17.144;2023-02-22T01:27:00;9.50;;;6.10;;
77280;SDS011;66339;47.262;17.144;2023-02-22T01:29:33;10.88;;;5.60;;
77280;SDS011;66339;47.262;17.144;2023-02-22T01:32:07;11.00;;;6.20;;
77280;SDS011;66339;47.262;17.144;2023-02-22T01:34:37;10.68;;;5.72;;
77280;SDS011;66339;47.262;17.144;2023-02-22T01:37:14;8.70;;;5.87;;
77280;SDS011;66339;47.262;17.144;2023-02-22T01:39:43;9.32;;;5.50;;
77280;SDS011;66339;47.262;17.144;2023-02-22T01:42:16;10.88;;;6.20;;
77280;SDS011;66339;47.262;17.144;2023-02-22T01:47:33;10.77;;;5.68;;
77280;SDS011;66339;47.262;17.144;2023-02-22T01:50:03;8.50;;;5.45;;
77280;SDS011;66339;47.262;17.144;2023-02-22T01:52:36;9.52;;;5.85;;
77280;SDS011;66339;47.262;17.144;2023-02-22T01:55:06;14.27;;;6.30;;
77280;SDS011;66339;47.262;17.144;2023-02-22T01:57:36;8.23;;;5.28;;
77280;SDS011;66339;47.262;17.144;2023-02-22T02:00:09;11.68;;;5.68;;
77280;SDS011;66339;47.262;17.144;2023-02-22T02:02:40;9.23;;;5.60;;
77280;SDS011;66339;47.262;17.144;2023-02-22T02:05:12;9.40;;;5.78;;
77280;SDS011;66339;47.262;17.144;2023-02-22T02:07:47;10.02;;;5.95;;
77280;SDS011;66339;47.262;17.144;2023-02-22T02:10:17;9.55;;;5.43;;
77280;SDS011;66339;47.262;17.144;2023-02-22T02:12:48;9.00;;;5.50;;
77280;SDS011;66339;47.262;17.144;2023-02-22T02:17:48;8.45;;;5.57;;
77280;SDS011;66339;47.262;17.144;2023-02-22T02:28:32;8.23;;;5.30;;
77280;SDS011;66339;47.262;17.144;2023-02-22T02:34:18;8.55;;;5.25;;
77280;SDS011;66339;47.262;17.144;2023-02-22T02:39:49;7.93;;;5.18;;
77280;SDS011;66339;47.262;17.144;2023-02-22T02:42:29;8.35;;;5.43;;
77280;SDS011;66339;47.262;17.144;2023-02-22T02:45:05;7.75;;;5.30;;
77280;SDS011;66339;47.262;17.144;2023-02-22T02:47:39;7.12;;;4.78;;
77280;SDS011;66339;47.262;17.144;2023-02-22T02:50:21;8.65;;;5.35;;
77280;SDS011;66339;47.262;17.144;2023-02-22T02:53:24;8.98;;;4.97;;
77280;SDS011;66339;47.262;17.144;2023-02-22T02:55:58;8.15;;;4.93;;
77280;SDS011;66339;47.262;17.144;2023-02-22T02:58:26;7.75;;;5.05;;
77280;SDS011;66339;47.262;17.144;2023-02-22T03:00:57;7.68;;;5.00;;
77280;SDS011;66339;47.262;17.144;2023-02-22T03:12:46;8.63;;;4.93;;
77280;SDS011;66339;47.262;17.144;2023-02-22T03:18:15;7.37;;;4.53;;
77280;SDS011;66339;47.262;17.144;2023-02-22T03:21:16;6.65;;;4.72;;
77280;SDS011;66339;47.262;17.144;2023-02-22T03:26:57;7.25;;;4.55;;
77280;SDS011;66339;47.262;17.144;2023-02-22T03:29:50;7.22;;;4.70;;
77280;SDS011;66339;47.262;17.144;2023-02-22T03:32:32;6.80;;;4.65;;
77280;SDS011;66339;47.262;17.144;2023-02-22T03:35:11;6.95;;;4.25;;
77280;SDS011;66339;47.262;17.144;2023-02-22T03:37:54;7.15;;;4.10;;
77280;SDS011;66339;47.262;17.144;2023-02-22T03:40:33;9.25;;;4.62;;
77280;SDS011;66339;47.262;17.144;2023-02-22T03:43:08;6.15;;;4.30;;
77280;SDS011;66339;47.262;17.144;2023-02-22T03:45:53;7.43;;;4.65;;
77280;SDS011;66339;47.262;17.144;2023-02-22T03:51:05;6.18;;;4.20;;
77280;SDS011;66339;47.262;17.144;2023-02-22T03:53:48;6.55;;;4.28;;
77280;SDS011;66339;47.262;17.144;2023-02-22T03:56:20;5.80;;;4.00;;
77280;SDS011;66339;47.262;17.144;2023-02-22T03:59:01;7.45;;;4.40;;
77280;SDS011;66339;47.262;17.144;2023-02-22T04:01:36;7.07;;;4.15;;
77280;SDS011;66339;47.262;17.144;2023-02-22T04:04:09;5.85;;;3.92;;
77280;SDS011;66339;47.262;17.144;2023-02-22T04:06:39;6.50;;;4.10;;
77280;SDS011;66339;47.262;17.144;2023-02-22T04:09:09;6.93;;;4.57;;
77280;SDS011;66339;47.262;17.144;2023-02-22T04:11:46;6.50;;;4.12;;
77280;SDS011;66339;47.262;17.144;2023-02-22T04:14:25;6.00;;;3.90;;
77280;SDS011;66339;47.262;17.144;2023-02-22T04:16:57;7.18;;;4.20;;
77280;SDS011;66339;47.262;17.144;2023-02-22T04:19:26;6.15;;;3.75;;
77280;SDS011;66339;47.262;17.144;2023-02-22T04:21:56;6.60;;;4.47;;
77280;SDS011;66339;47.262;17.144;2023-02-22T04:24:25;6.70;;;4.20;;
77280;SDS011;66339;47.262;17.144;2023-02-22T04:26:55;10.52;;;4.47;;
77280;SDS011;66339;47.262;17.144;2023-02-22T04:29:28;5.85;;;4.10;;
77280;SDS011;66339;47.262;17.144;2023-02-22T04:34:28;6.12;;;4.10;;
77280;SDS011;66339;47.262;17.144;2023-02-22T04:36:55;7.43;;;3.87;;
77280;SDS011;66339;47.262;17.144;2023-02-22T04:39:29;5.82;;;4.28;;
77280;SDS011;66339;47.262;17.144;2023-02-22T04:42:05;6.03;;;3.95;;
77280;SDS011;66339;47.262;17.144;2023-02-22T04:44:36;5.85;;;3.60;;
77280;SDS011;66339;47.262;17.144;2023-02-22T04:47:08;6.05;;;4.20;;
77280;SDS011;66339;47.262;17.144;2023-02-22T04:49:45;5.18;;;3.95;;
77280;SDS011;66339;47.262;17.144;2023-02-22T04:52:12;4.93;;;3.40;;
77280;SDS011;66339;47.262;17.144;2023-02-22T04:54:43;5.72;;;3.72;;
77280;SDS011;66339;47.262;17.144;2023-02-22T04:57:13;6.78;;;4.25;;
77280;SDS011;66339;47.262;17.144;2023-02-22T04:59:47;5.93;;;3.87;;
77280;SDS011;66339;47.262;17.144;2023-02-22T05:02:17;6.28;;;3.85;;
77280;SDS011;66339;47.262;17.144;2023-02-22T05:04:48;5.32;;;3.70;;
77280;SDS011;66339;47.262;17.144;2023-02-22T05:07:15;5.37;;;3.62;;
77280;SDS011;66339;47.262;17.144;2023-02-22T05:09:50;5.57;;;3.70;;
77280;SDS011;66339;47.262;17.144;2023-02-22T05:12:20;4.55;;;3.30;;
77280;SDS011;66339;47.262;17.144;2023-02-22T05:14:52;5.18;;;3.37;;
77280;SDS011;66339;47.262;17.144;2023-02-22T05:17:22;4.82;;;3.47;;
77280;SDS011;66339;47.262;17.144;2023-02-22T05:19:49;5.37;;;3.50;;
77280;SDS011;66339;47.262;17.144;2023-02-22T05:22:22;6.20;;;3.78;;
77280;SDS011;66339;47.262;17.144;2023-02-22T05:24:54;5.57;;;3.70;;
77280;SDS011;66339;47.262;17.144;2023-02-22T05:27:24;6.57;;;3.58;;
77280;SDS011;66339;47.262;17.144;2023-02-22T05:29:56;5.45;;;3.80;;
77280;SDS011;66339;47.262;17.144;2023-02-22T05:32:26;6.15;;;3.70;;
77280;SDS011;66339;47.262;17.144;2023-02-22T05:34:56;5.10;;;3.40;;
77280;SDS011;66339;47.262;17.144;2023-02-22T05:37:29;6.00;;;3.60;;
77280;SDS011;66339;47.262;17.144;2023-02-22T05:39:59;9.90;;;3.50;;
77280;SDS011;66339;47.262;17.144;2023-02-22T05:42:27;8.20;;;3.67;;
77280;SDS011;66339;47.262;17.144;2023-02-22T05:44:58;10.80;;;3.60;;
77280;SDS011;66339;47.262;17.144;2023-02-22T05:47:28;5.75;;;3.53;;
77280;SDS011;66339;47.262;17.144;2023-02-22T05:49:55;6.55;;;4.03;;
77280;SDS011;66339;47.262;17.144;2023-02-22T05:52:22;5.75;;;3.53;;
77280;SDS011;66339;47.262;17.144;2023-02-22T05:54:51;8.10;;;3.47;;
77280;SDS011;66339;47.262;17.144;2023-02-22T05:57:21;11.82;;;3.20;;
77280;SDS011;66339;47.262;17.144;2023-02-22T05:59:51;8.00;;;3.95;;
77280;SDS011;66339;47.262;17.144;2023-02-22T06:02:18;5.90;;;3.55;;
77280;SDS011;66339;47.262;17.144;2023-02-22T06:04:49;7.90;;;3.70;;
77280;SDS011;66339;47.262;17.144;2023-02-22T06:07:21;7.10;;;3.50;;
77280;SDS011;66339;47.262;17.144;2023-02-22T06:09:48;17.08;;;3.85;;
77280;SDS011;66339;47.262;17.144;2023-02-22T06:12:15;11.57;;;3.62;;
77280;SDS011;66339;47.262;17.144;2023-02-22T06:14:45;9.95;;;3.80;;
77280;SDS011;66339;47.262;17.144;2023-02-22T06:17:15;6.93;;;3.37;;
77280;SDS011;66339;47.262;17.144;2023-02-22T06:19:45;8.82;;;3.65;;
77280;SDS011;66339;47.262;17.144;2023-02-22T06:24:55;7.68;;;3.20;;
77280;SDS011;66339;47.262;17.144;2023-02-22T06:27:25;93.25;;;24.63;;
77280;SDS011;66339;47.262;17.144;2023-02-22T06:29:56;228.05;;;68.32;;
77280;SDS011;66339;47.262;17.144;2023-02-22T06:32:23;127.30;;;38.72;;
77280;SDS011;66339;47.262;17.144;2023-02-22T06:34:50;122.32;;;34.00;;
77280;SDS011;66339;47.262;17.144;2023-02-22T06:37:16;351.25;;;141.52;;
77280;SDS011;66339;47.262;17.144;2023-02-22T06:39:43;331.52;;;138.12;;
77280;SDS011;66339;47.262;17.144;2023-02-22T06:42:16;242.07;;;99.45;;
77280;SDS011;66339;47.262;17.144;2023-02-22T06:44:53;184.80;;;69.30;;
77280;SDS011;66339;47.262;17.144;2023-02-22T06:47:20;172.82;;;67.10;;
77280;SDS011;66339;47.262;17.144;2023-02-22T06:49:51;172.90;;;59.85;;
77280;SDS011;66339;47.262;17.144;2023-02-22T06:52:24;156.82;;;58.53;;
77280;SDS011;66339;47.262;17.144;2023-02-22T06:54:51;157.37;;;57.53;;
77280;SDS011;66339;47.262;17.144;2023-02-22T06:59:50;139.65;;;52.28;;
77280;SDS011;66339;47.262;17.144;2023-02-22T07:02:17;147.40;;;52.55;;
77280;SDS011;66339;47.262;17.144;2023-02-22T07:04:44;136.30;;;50.83;;
77280;SDS011;66339;47.262;17.144;2023-02-22T07:07:14;139.73;;;48.50;;
77280;SDS011;66339;47.262;17.144;2023-02-22T07:09:44;123.85;;;47.92;;
77280;SDS011;66339;47.262;17.144;2023-02-22T07:12:17;115.05;;;44.75;;
77280;SDS011;66339;47.262;17.144;2023-02-22T07:14:48;120.95;;;43.83;;
77280;SDS011;66339;47.262;17.144;2023-02-22T07:17:22;116.05;;;43.40;;
77280;SDS011;66339;47.262;17.144;2023-02-22T07:19:52;112.35;;;42.08;;
77280;SDS011;66339;47.262;17.144;2023-02-22T07:22:20;96.40;;;38.25;;
77280;SDS011;66339;47.262;17.144;2023-02-22T07:24:50;99.25;;;38.15;;
77280;SDS011;66339;47.262;17.144;2023-02-22T07:27:23;81.47;;;33.72;;
77280;SDS011;66339;47.262;17.144;2023-02-22T07:29:55;68.85;;;29.20;;
77280;SDS011;66339;47.262;17.144;2023-02-22T07:32:28;65.05;;;28.40;;
77280;SDS011;66339;47.262;17.144;2023-02-22T07:34:55;68.18;;;28.15;;
77280;SDS011;66339;47.262;17.144;2023-02-22T07:37:22;67.18;;;28.33;;
77280;SDS011;66339;47.262;17.144;2023-02-22T07:39:54;75.35;;;29.27;;
77280;SDS011;66339;47.262;17.144;2023-02-22T07:42:26;60.50;;;25.73;;
77280;SDS011;66339;47.262;17.144;2023-02-22T07:44:56;63.38;;;24.45;;
77280;SDS011;66339;47.262;17.144;2023-02-22T07:47:28;49.55;;;21.42;;
77280;SDS011;66339;47.262;17.144;2023-02-22T07:49:58;40.25;;;17.60;;
77280;SDS011;66339;47.262;17.144;2023-02-22T07:52:27;42.70;;;16.62;;
77280;SDS011;66339;47.262;17.144;2023-02-22T07:54:57;33.33;;;15.50;;
77280;SDS011;66339;47.262;17.144;2023-02-22T07:57:24;46.15;;;17.40;;
77280;SDS011;66339;47.262;17.144;2023-02-22T07:59:52;40.78;;;16.85;;
77280;SDS011;66339;47.262;17.144;2023-02-22T08:02:19;43.13;;;17.90;;
77280;SDS011;66339;47.262;17.144;2023-02-22T08:04:47;38.88;;;17.20;;
77280;SDS011;66339;47.262;17.144;2023-02-22T08:07:20;36.75;;;15.73;;
77280;SDS011;66339;47.262;17.144;2023-02-22T08:09:53;35.78;;;16.25;;
77280;SDS011;66339;47.262;17.144;2023-02-22T08:12:26;35.30;;;15.63;;
77280;SDS011;66339;47.262;17.144;2023-02-22T08:14:53;32.20;;;15.48;;
77280;SDS011;66339;47.262;17.144;2023-02-22T08:17:23;37.58;;;15.35;;
77280;SDS011;66339;47.262;17.144;2023-02-22T08:19:53;33.35;;;14.57;;
77280;SDS011;66339;47.262;17.144;2023-02-22T08:22:26;30.40;;;15.02;;
77280;SDS011;66339;47.262;17.144;2023-02-22T08:24:56;34.72;;;14.40;;
77280;SDS011;66339;47.262;17.144;2023-02-22T08:27:23;30.35;;;15.35;;
77280;SDS011;66339;47.262;17.144;2023-02-22T08:29:54;30.42;;;14.27;;
77280;SDS011;66339;47.262;17.144;2023-02-22T08:32:22;32.78;;;15.48;;
77280;SDS011;66339;47.262;17.144;2023-02-22T08:34:52;29.58;;;13.38;;
77280;SDS011;66339;47.262;17.144;2023-02-22T08:37:19;31.10;;;13.07;;
77280;SDS011;66339;47.262;17.144;2023-02-22T08:39:46;43.05;;;13.48;;
77280;SDS011;66339;47.262;17.144;2023-02-22T08:42:18;25.62;;;12.45;;
77280;SDS011;66339;47.262;17.144;2023-02-22T08:44:48;28.27;;;12.65;;
77280;SDS011;66339;47.262;17.144;2023-02-22T08:47:18;28.95;;;12.27;;
77280;SDS011;66339;47.262;17.144;2023-02-22T08:49:44;26.92;;;12.13;;
77280;SDS011;66339;47.262;17.144;2023-02-22T08:52:16;28.70;;;12.48;;
77280;SDS011;66339;47.262;17.144;2023-02-22T08:54:44;25.65;;;11.70;;
77280;SDS011;66339;47.262;17.144;2023-02-22T08:57:10;25.20;;;11.50;;
77280;SDS011;66339;47.262;17.144;2023-02-22T08:59:37;26.27;;;12.27;;
77280;SDS011;66339;47.262;17.144;2023-02-22T09:02:04;31.52;;;12.73;;
77280;SDS011;66339;47.262;17.144;2023-02-22T09:04:39;21.30;;;11.32;;
77280;SDS011;66339;47.262;17.144;2023-02-22T09:07:09;25.75;;;11.35;;
77280;SDS011;66339;47.262;17.144;2023-02-22T09:09:46;26.92;;;11.50;;
77280;SDS011;66339;47.262;17.144;2023-02-22T09:12:16;24.00;;;10.73;;
77280;SDS011;66339;47.262;17.144;2023-02-22T09:14:46;24.45;;;11.85;;
77280;SDS011;66339;47.262;17.144;2023-02-22T09:17:14;21.60;;;11.20;;
77280;SDS011;66339;47.262;17.144;2023-02-22T09:19:40;22.40;;;10.43;;
77280;SDS011;66339;47.262;17.144;2023-02-22T09:22:07;24.87;;;10.60;;
77280;SDS011;66339;47.262;17.144;2023-02-22T09:24:34;20.92;;;10.38;;
77280;SDS011;66339;47.262;17.144;2023-02-22T09:27:01;18.33;;;9.65;;
77280;SDS011;66339;47.262;17.144;2023-02-22T09:29:30;24.67;;;10.20;;
77280;SDS011;66339;47.262;17.144;2023-02-22T09:31:57;22.73;;;9.88;;
77280;SDS011;66339;47.262;17.144;2023-02-22T09:34:30;18.37;;;10.10;;
77280;SDS011;66339;47.262;17.144;2023-02-22T09:37:03;19.50;;;10.43;;
77280;SDS011;66339;47.262;17.144;2023-02-22T09:39:35;22.40;;;9.48;;
77280;SDS011;66339;47.262;17.144;2023-02-22T09:44:43;20.33;;;9.30;;
77280;SDS011;66339;47.262;17.144;2023-02-22T09:47:18;18.80;;;9.55;;
77280;SDS011;66339;47.262;17.144;2023-02-22T09:52:39;16.12;;;8.85;;
77280;SDS011;66339;47.262;17.144;2023-02-22T09:57:51;15.93;;;8.80;;
77280;SDS011;66339;47.262;17.144;2023-02-22T10:00:19;18.52;;;8.57;;
77280;SDS011;66339;47.262;17.144;2023-02-22T10:05:33;17.30;;;8.35;;
77280;SDS011;66339;47.262;17.144;2023-02-22T10:08:05;17.37;;;8.77;;
77280;SDS011;66339;47.262;17.144;2023-02-22T10:10:37;19.85;;;8.32;;
77280;SDS011;66339;47.262;17.144;2023-02-22T10:13:15;17.90;;;8.20;;
77280;SDS011;66339;47.262;17.144;2023-02-22T10:16:05;13.98;;;7.85;;
77280;SDS011;66339;47.262;17.144;2023-02-22T10:19:26;13.05;;;7.53;;
77280;SDS011;66339;47.262;17.144;2023-02-22T10:27:14;15.05;;;8.13;;
77280;SDS011;66339;47.262;17.144;2023-02-22T10:30:06;16.48;;;8.13;;
77280;SDS011;66339;47.262;17.144;2023-02-22T10:32:56;17.92;;;7.37;;
77280;SDS011;66339;47.262;17.144;2023-02-22T10:35:28;20.58;;;8.30;;
77280;SDS011;66339;47.262;17.144;2023-02-22T10:37:59;16.33;;;7.43;;
77280;SDS011;66339;47.262;17.144;2023-02-22T10:40:36;20.15;;;7.55;;
77280;SDS011;66339;47.262;17.144;2023-02-22T10:43:04;16.37;;;7.03;;
77280;SDS011;66339;47.262;17.144;2023-02-22T10:45:33;14.98;;;6.95;;
77280;SDS011;66339;47.262;17.144;2023-02-22T10:48:12;13.88;;;7.03;;
77280;SDS011;66339;47.262;17.144;2023-02-22T10:50:45;16.20;;;6.72;;
77280;SDS011;66339;47.262;17.144;2023-02-22T10:53:17;20.35;;;7.85;;
77280;SDS011;66339;47.262;17.144;2023-02-22T10:58:42;14.15;;;7.10;;
77280;SDS011;66339;47.262;17.144;2023-02-22T11:01:21;16.80;;;7.30;;
77280;SDS011;66339;47.262;17.144;2023-02-22T11:06:43;15.73;;;6.60;;
77280;SDS011;66339;47.262;17.144;2023-02-22T11:09:24;14.05;;;7.03;;
77280;SDS011;66339;47.262;17.144;2023-02-22T11:12:10;16.27;;;6.37;;
77280;SDS011;66339;47.262;17.144;2023-02-22T11:14:44;15.20;;;7.00;;
77280;SDS011;66339;47.262;17.144;2023-02-22T11:17:17;26.27;;;7.47;;
77280;SDS011;66339;47.262;17.144;2023-02-22T11:19:53;14.10;;;6.57;;
77280;SDS011;66339;47.262;17.144;2023-02-22T11:22:25;12.40;;;6.82;;
77280;SDS011;66339;47.262;17.144;2023-02-22T11:25:05;14.98;;;6.32;;
77280;SDS011;66339;47.262;17.144;2023-02-22T11:27:44;14.57;;;7.22;;
77280;SDS011;66339;47.262;17.144;2023-02-22T11:30:19;15.77;;;6.25;;
77280;SDS011;66339;47.262;17.144;2023-02-22T11:38:18;15.80;;;6.30;;
77280;SDS011;66339;47.262;17.144;2023-02-22T11:41:05;12.15;;;6.60;;
77280;SDS011;66339;47.262;17.144;2023-02-22T11:43:35;17.92;;;6.45;;
77280;SDS011;66339;47.262;17.144;2023-02-22T11:46:08;15.20;;;6.57;;
77280;SDS011;66339;47.262;17.144;2023-02-22T11:48:38;15.55;;;6.30;;
77280;SDS011;66339;47.262;17.144;2023-02-22T11:51:15;12.70;;;6.07;;
77280;SDS011;66339;47.262;17.144;2023-02-22T12:00:16;10.32;;;5.25;;
77280;SDS011;66339;47.262;17.144;2023-02-22T12:03:06;12.80;;;5.53;;
77280;SDS011;66339;47.262;17.144;2023-02-22T12:14:48;10.85;;;5.50;;
77280;SDS011;66339;47.262;17.144;2023-02-22T12:17:43;9.90;;;4.97;;
77280;SDS011;66339;47.262;17.144;2023-02-22T12:20:24;10.10;;;4.90;;
77280;SDS011;66339;47.262;17.144;2023-02-22T12:26:02;9.63;;;5.35;;
77280;SDS011;66339;47.262;17.144;2023-02-22T12:28:38;8.52;;;5.37;;
77280;SDS011;66339;47.262;17.144;2023-02-22T12:36:32;8.90;;;4.07;;
77280;SDS011;66339;47.262;17.144;2023-02-22T12:39:10;10.05;;;4.57;;
77280;SDS011;66339;47.262;17.144;2023-02-22T12:42:43;9.15;;;4.07;;
77280;SDS011;66339;47.262;17.144;2023-02-22T12:54:15;7.35;;;3.60;;
77280;SDS011;66339;47.262;17.144;2023-02-22T12:57:00;8.70;;;3.70;;
77280;SDS011;66339;47.262;17.144;2023-02-22T12:59:40;7.70;;;4.00;;
77280;SDS011;66339;47.262;17.144;2023-02-22T13:04:46;6.57;;;3.78;;
77280;SDS011;66339;47.262;17.144;2023-02-22T13:12:58;5.80;;;3.37;;
77280;SDS011;66339;47.262;17.144;2023-02-22T13:16:10;5.30;;;3.08;;
77280;SDS011;66339;47.262;17.144;2023-02-22T13:19:41;7.20;;;3.40;;
77280;SDS011;66339;47.262;17.144;2023-02-22T13:24:18;7.35;;;3.62;;
77280;SDS011;66339;47.262;17.144;2023-02-22T13:26:58;6.82;;;3.05;;
77280;SDS011;66339;47.262;17.144;2023-02-22T13:29:32;5.15;;;3.15;;
77280;SDS011;66339;47.262;17.144;2023-02-22T13:35:00;5.53;;;3.22;;
77280;SDS011;66339;47.262;17.144;2023-02-22T13:45:53;4.53;;;3.12;;
77280;SDS011;66339;47.262;17.144;2023-02-22T13:56:58;5.95;;;2.90;;
77280;SDS011;66339;47.262;17.144;2023-02-22T13:59:34;5.43;;;2.95;;
77280;SDS011;66339;47.262;17.144;2023-02-22T14:02:03;7.03;;;3.15;;
77280;SDS011;66339;47.262;17.144;2023-02-22T14:09:50;4.82;;;2.90;;
77280;SDS011;66339;47.262;17.144;2023-02-22T14:18:03;6.60;;;3.08;;
77280;SDS011;66339;47.262;17.144;2023-02-22T14:20:32;6.10;;;3.25;;
77280;SDS011;66339;47.262;17.144;2023-02-22T14:25:54;6.90;;;2.97;;
77280;SDS011;66339;47.262;17.144;2023-02-22T14:31:12;9.48;;;4.20;;
77280;SDS011;66339;47.262;17.144;2023-02-22T14:34:10;8.77;;;3.80;;
77280;SDS011;66339;47.262;17.144;2023-02-22T14:42:33;6.10;;;3.72;;
77280;SDS011;66339;47.262;17.144;2023-02-22T14:47:47;5.90;;;3.40;;
77280;SDS011;66339;47.262;17.144;2023-02-22T14:50:24;7.60;;;3.50;;
77280;SDS011;66339;47.262;17.144;2023-02-22T14:55:55;8.55;;;4.07;;
77280;SDS011;66339;47.262;17.144;2023-02-22T14:58:42;9.70;;;3.72;;
77280;SDS011;66339;47.262;17.144;2023-02-22T15:01:28;10.20;;;3.75;;
77280;SDS011;66339;47.262;17.144;2023-02-22T15:04:28;7.60;;;4.20;;
77280;SDS011;66339;47.262;17.144;2023-02-22T15:06:57;6.90;;;4.20;;
77280;SDS011;66339;47.262;17.144;2023-02-22T15:09:27;10.23;;;4.62;;
77280;SDS011;66339;47.262;17.144;2023-02-22T15:17:07;9.05;;;5.10;;
77280;SDS011;66339;47.262;17.144;2023-02-22T15:19:43;9.70;;;4.50;;
77280;SDS011;66339;47.262;17.144;2023-02-22T15:25:01;11.20;;;4.20;;
77280;SDS011;66339;47.262;17.144;2023-02-22T15:27:30;10.55;;;4.95;;
77280;SDS011;66339;47.262;17.144;2023-02-22T15:30:02;9.27;;;4.70;;
77280;SDS011;66339;47.262;17.144;2023-02-22T15:32:49;7.53;;;4.68;;
77280;SDS011;66339;47.262;17.144;2023-02-22T15:35:31;8.00;;;4.72;;
77280;SDS011;66339;47.262;17.144;2023-02-22T15:41:18;7.90;;;4.18;;
77280;SDS011;66339;47.262;17.144;2023-02-22T15:49:19;11.70;;;4.07;;
77280;SDS011;66339;47.262;17.144;2023-02-22T15:51:50;12.32;;;3.90;;
77280;SDS011;66339;47.262;17.144;2023-02-22T15:54:27;9.45;;;3.60;;
77280;SDS011;66339;47.262;17.144;2023-02-22T15:56:55;8.88;;;3.55;;
77280;SDS011;66339;47.262;17.144;2023-02-22T15:59:26;6.10;;;3.47;;
77280;SDS011;66339;47.262;17.144;2023-02-22T16:01:58;8.93;;;3.78;;
77280;SDS011;66339;47.262;17.144;2023-02-22T16:04:28;8.27;;;3.58;;
77280;SDS011;66339;47.262;17.144;2023-02-22T16:07:06;8.85;;;3.62;;
77280;SDS011;66339;47.262;17.144;2023-02-22T16:09:45;9.60;;;4.10;;
77280;SDS011;66339;47.262;17.144;2023-02-22T16:14:47;9.20;;;3.78;;
77280;SDS011;66339;47.262;17.144;2023-02-22T16:22:55;16.12;;;4.07;;
77280;SDS011;66339;47.262;17.144;2023-02-22T16:25:29;9.30;;;3.72;;
77280;SDS011;66339;47.262;17.144;2023-02-22T16:27:59;11.43;;;3.55;;
77280;SDS011;66339;47.262;17.144;2023-02-22T16:30:29;10.00;;;3.37;;
77280;SDS011;66339;47.262;17.144;2023-02-22T16:33:05;12.82;;;3.70;;
77280;SDS011;66339;47.262;17.144;2023-02-22T16:35:33;8.25;;;3.72;;
77280;SDS011;66339;47.262;17.144;2023-02-22T16:38:04;11.12;;;3.17;;
77280;SDS011;66339;47.262;17.144;2023-02-22T16:40:33;6.50;;;3.33;;
77280;SDS011;66339;47.262;17.144;2023-02-22T16:43:05;9.98;;;3.35;;
77280;SDS011;66339;47.262;17.144;2023-02-22T16:45:48;11.82;;;3.62;;
77280;SDS011;66339;47.262;17.144;2023-02-22T16:48:25;9.77;;;3.80;;
77280;SDS011;66339;47.262;17.144;2023-02-22T16:50:53;7.25;;;3.28;;
77280;SDS011;66339;47.262;17.144;2023-02-22T16:53:27;11.18;;;3.53;;
77280;SDS011;66339;47.262;17.144;2023-02-22T16:55:59;10.43;;;3.75;;
77280;SDS011;66339;47.262;17.144;2023-02-22T16:58:33;9.40;;;3.75;;
77280;SDS011;66339;47.262;17.144;2023-02-22T17:01:03;6.72;;;3.62;;
77280;SDS011;66339;47.262;17.144;2023-02-22T17:03:31;8.88;;;3.42;;
77280;SDS011;66339;47.262;17.144;2023-02-22T17:05:59;12.60;;;3.78;;
77280;SDS011;66339;47.262;17.144;2023-02-22T17:08:26;8.93;;;3.42;;
77280;SDS011;66339;47.262;17.144;2023-02-22T17:10:53;8.85;;;3.90;;
77280;SDS011;66339;47.262;17.144;2023-02-22T17:13:24;11.88;;;4.00;;
77280;SDS011;66339;47.262;17.144;2023-02-22T17:15:59;6.32;;;3.20;;
77280;SDS011;66339;47.262;17.144;2023-02-22T17:18:27;9.95;;;4.28;;
77280;SDS011;66339;47.262;17.144;2023-02-22T17:20:56;8.40;;;4.28;;
77280;SDS011;66339;47.262;17.144;2023-02-22T17:23:28;10.02;;;3.65;;
77280;SDS011;66339;47.262;17.144;2023-02-22T17:25:58;9.23;;;3.45;;
77280;SDS011;66339;47.262;17.144;2023-02-22T17:28:30;15.65;;;3.97;;
77280;SDS011;66339;47.262;17.144;2023-02-22T17:34:02;18.25;;;9.68;;
77280;SDS011;66339;47.262;17.144;2023-02-22T17:36:33;21.58;;;12.00;;
77280;SDS011;66339;47.262;17.144;2023-02-22T17:39:07;26.55;;;15.32;;
77280;SDS011;66339;47.262;17.144;2023-02-22T17:41:38;28.80;;;17.45;;
77280;SDS011;66339;47.262;17.144;2023-02-22T17:44:09;31.42;;;19.42;;
77280;SDS011;66339;47.262;17.144;2023-02-22T17:46:46;37.22;;;21.77;;
77280;SDS011;66339;47.262;17.144;2023-02-22T17:49:22;44.83;;;24.95;;
77280;SDS011;66339;47.262;17.144;2023-02-22T17:51:53;38.83;;;22.33;;
77280;SDS011;66339;47.262;17.144;2023-02-22T17:54:26;44.38;;;22.58;;
77280;SDS011;66339;47.262;17.144;2023-02-22T17:56:56;39.67;;;21.85;;
77280;SDS011;66339;47.262;17.144;2023-02-22T17:59:23;35.55;;;22.13;;
77280;SDS011;66339;47.262;17.144;2023-02-22T18:01:50;29.90;;;20.25;;
77280;SDS011;66339;47.262;17.144;2023-02-22T18:04:24;34.05;;;20.15;;
77280;SDS011;66339;47.262;17.144;2023-02-22T18:06:57;37.58;;;20.17;;
77280;SDS011;66339;47.262;17.144;2023-02-22T18:09:24;33.22;;;20.85;;